Sorriso, Brazil
Current Conditions -  °F | °C
As of 2:00 PM on Thursday 23 Oct 2014 (Local Time) from SBAT Reporting Station
Rain Showers Rain Showers  
Wind Chill: 34°   Ceiling: 10000
Heat Index: 38°   Visibility: 6mi
Dew Point: 22°   Wind: 10mph
Humidity: 49%   Direction: 10°N
Pressure: 29.88"   Gusts: NA
Location:  12.6°S, 55.75°W
Report Text: SBAT 231700Z 01009KT 9999 VCSH SCT030 FEW040TCU BKN100 34/22 Q1012
Loading
Personal Weather Stations






























Interactive Weather Map
Tropical Storm Tracking
New forecast layout! Learn more

10-Day Weather Forecast

Advertisements
Track Severe Weather on mobile